sensor_id;sensor_type;location;lat;lon;timestamp;temperature;humidity
36444;DHT22;24692;45.642;13.806;2022-11-02T00:00:27;16.20;99.90
36444;DHT22;24692;45.642;13.806;2022-11-02T00:02:53;16.20;99.90
36444;DHT22;24692;45.642;13.806;2022-11-02T00:05:19;16.10;99.90
36444;DHT22;24692;45.642;13.806;2022-11-02T00:07:52;16.10;99.90
36444;DHT22;24692;45.642;13.806;2022-11-02T00:10:20;16.10;99.90
36444;DHT22;24692;45.642;13.806;2022-11-02T00:12:46;16.20;99.90
36444;DHT22;24692;45.642;13.806;2022-11-02T00:15:12;16.20;99.90
36444;DHT22;24692;45.642;13.806;2022-11-02T00:17:44;16.30;99.90
36444;DHT22;24692;45.642;13.806;2022-11-02T00:20:12;16.30;99.90
36444;DHT22;24692;45.642;13.806;2022-11-02T00:22:39;16.30;99.90
36444;DHT22;24692;45.642;13.806;2022-11-02T00:25:06;16.30;99.90
36444;DHT22;24692;45.642;13.806;2022-11-02T00:27:33;16.30;99.90
36444;DHT22;24692;45.642;13.806;2022-11-02T00:29:59;16.30;99.90
36444;DHT22;24692;45.642;13.806;2022-11-02T00:32:26;16.30;99.90
36444;DHT22;24692;45.642;13.806;2022-11-02T00:34:51;16.20;99.90
36444;DHT22;24692;45.642;13.806;2022-11-02T00:37:18;16.20;99.90
36444;DHT22;24692;45.642;13.806;2022-11-02T00:39:43;16.20;99.90
36444;DHT22;24692;45.642;13.806;2022-11-02T00:42:09;16.20;99.90
36444;DHT22;24692;45.642;13.806;2022-11-02T00:44:35;16.20;99.90
36444;DHT22;24692;45.642;13.806;2022-11-02T00:47:01;16.20;99.90
36444;DHT22;24692;45.642;13.806;2022-11-02T00:49:26;16.10;99.90
36444;DHT22;24692;45.642;13.806;2022-11-02T00:51:52;16.10;99.90
36444;DHT22;24692;45.642;13.806;2022-11-02T00:54:18;16.10;99.90
36444;DHT22;24692;45.642;13.806;2022-11-02T00:56:43;16.10;99.90
36444;DHT22;24692;45.642;13.806;2022-11-02T00:59:09;16.10;99.90
36444;DHT22;24692;45.642;13.806;2022-11-02T01:01:34;16.00;99.90
36444;DHT22;24692;45.642;13.806;2022-11-02T01:04:00;16.00;99.90
36444;DHT22;24692;45.642;13.806;2022-11-02T01:06:26;16.00;99.90
36444;DHT22;24692;45.642;13.806;2022-11-02T01:08:52;15.90;99.90
36444;DHT22;24692;45.642;13.806;2022-11-02T01:11:21;16.00;99.90
36444;DHT22;24692;45.642;13.806;2022-11-02T01:13:49;16.00;99.90
36444;DHT22;24692;45.642;13.806;2022-11-02T01:16:15;15.90;99.90
36444;DHT22;24692;45.642;13.806;2022-11-02T01:18:41;15.90;99.90
36444;DHT22;24692;45.642;13.806;2022-11-02T01:21:07;15.90;99.90
36444;DHT22;24692;45.642;13.806;2022-11-02T01:23:34;15.90;99.90
36444;DHT22;24692;45.642;13.806;2022-11-02T01:26:05;15.80;99.90
36444;DHT22;24692;45.642;13.806;2022-11-02T01:28:31;15.90;99.90
36444;DHT22;24692;45.642;13.806;2022-11-02T01:30:57;15.90;99.90
36444;DHT22;24692;45.642;13.806;2022-11-02T01:33:24;15.80;99.90
36444;DHT22;24692;45.642;13.806;2022-11-02T01:35:50;15.80;99.90
36444;DHT22;24692;45.642;13.806;2022-11-02T01:38:16;15.70;99.90
36444;DHT22;24692;45.642;13.806;2022-11-02T01:40:42;15.70;99.90
36444;DHT22;24692;45.642;13.806;2022-11-02T01:43:30;15.70;99.90
36444;DHT22;24692;45.642;13.806;2022-11-02T01:46:05;15.70;99.90
36444;DHT22;24692;45.642;13.806;2022-11-02T01:48:34;15.80;99.90
36444;DHT22;24692;45.642;13.806;2022-11-02T01:51:04;15.90;99.90
36444;DHT22;24692;45.642;13.806;2022-11-02T01:53:32;16.00;99.90
36444;DHT22;24692;45.642;13.806;2022-11-02T01:56:00;16.10;99.90
36444;DHT22;24692;45.642;13.806;2022-11-02T01:58:26;16.10;99.90
36444;DHT22;24692;45.642;13.806;2022-11-02T02:00:53;16.00;99.90
36444;DHT22;24692;45.642;13.806;2022-11-02T02:03:20;16.00;99.90
36444;DHT22;24692;45.642;13.806;2022-11-02T02:05:58;15.90;99.90
36444;DHT22;24692;45.642;13.806;2022-11-02T02:08:26;15.80;99.90
36444;DHT22;24692;45.642;13.806;2022-11-02T02:10:56;15.90;99.90
36444;DHT22;24692;45.642;13.806;2022-11-02T02:13:23;15.80;99.90
36444;DHT22;24692;45.642;13.806;2022-11-02T02:16:10;15.80;99.90
36444;DHT22;24692;45.642;13.806;2022-11-02T02:18:45;15.70;99.90
36444;DHT22;24692;45.642;13.806;2022-11-02T02:21:20;15.70;99.90
36444;DHT22;24692;45.642;13.806;2022-11-02T02:27:27;15.70;99.90
36444;DHT22;24692;45.642;13.806;2022-11-02T02:30:02;15.60;99.90
36444;DHT22;24692;45.642;13.806;2022-11-02T02:32:58;15.50;99.90
36444;DHT22;24692;45.642;13.806;2022-11-02T02:35:47;15.50;99.90
36444;DHT22;24692;45.642;13.806;2022-11-02T02:38:42;15.40;99.90
36444;DHT22;24692;45.642;13.806;2022-11-02T02:41:13;15.40;99.90
36444;DHT22;24692;45.642;13.806;2022-11-02T02:43:46;15.30;99.90
36444;DHT22;24692;45.642;13.806;2022-11-02T02:48:55;15.30;99.90
36444;DHT22;24692;45.642;13.806;2022-11-02T02:51:28;15.20;99.90
36444;DHT22;24692;45.642;13.806;2022-11-02T02:54:05;15.20;99.90
36444;DHT22;24692;45.642;13.806;2022-11-02T02:56:45;15.20;99.90
36444;DHT22;24692;45.642;13.806;2022-11-02T02:59:33;15.20;99.90
36444;DHT22;24692;45.642;13.806;2022-11-02T03:02:04;15.30;99.90
36444;DHT22;24692;45.642;13.806;2022-11-02T03:04:32;15.30;99.90
36444;DHT22;24692;45.642;13.806;2022-11-02T03:06:59;15.30;99.90
36444;DHT22;24692;45.642;13.806;2022-11-02T03:14:40;15.40;99.90
36444;DHT22;24692;45.642;13.806;2022-11-02T03:17:15;15.30;99.90
36444;DHT22;24692;45.642;13.806;2022-11-02T03:24:56;15.20;99.90
36444;DHT22;24692;45.642;13.806;2022-11-02T03:27:33;15.20;99.90
36444;DHT22;24692;45.642;13.806;2022-11-02T03:32:40;15.20;99.90
36444;DHT22;24692;45.642;13.806;2022-11-02T03:35:27;15.20;99.90
36444;DHT22;24692;45.642;13.806;2022-11-02T03:38:10;15.20;99.90
36444;DHT22;24692;45.642;13.806;2022-11-02T03:40:42;15.00;99.90
36444;DHT22;24692;45.642;13.806;2022-11-02T03:43:09;15.00;99.90
36444;DHT22;24692;45.642;13.806;2022-11-02T03:45:50;15.00;99.90
36444;DHT22;24692;45.642;13.806;2022-11-02T03:48:17;14.90;99.90
36444;DHT22;24692;45.642;13.806;2022-11-02T03:50:50;14.90;99.90
36444;DHT22;24692;45.642;13.806;2022-11-02T03:53:21;14.90;99.90
36444;DHT22;24692;45.642;13.806;2022-11-02T03:55:57;14.80;99.90
36444;DHT22;24692;45.642;13.806;2022-11-02T03:58:24;14.80;99.90
36444;DHT22;24692;45.642;13.806;2022-11-02T04:00:55;14.70;99.90
36444;DHT22;24692;45.642;13.806;2022-11-02T04:03:23;14.80;99.90
36444;DHT22;24692;45.642;13.806;2022-11-02T04:05:49;14.70;99.90
36444;DHT22;24692;45.642;13.806;2022-11-02T04:08:20;14.80;99.90
36444;DHT22;24692;45.642;13.806;2022-11-02T04:10:50;14.70;99.90
36444;DHT22;24692;45.642;13.806;2022-11-02T04:13:35;14.70;99.90
36444;DHT22;24692;45.642;13.806;2022-11-02T04:16:20;14.80;99.90
36444;DHT22;24692;45.642;13.806;2022-11-02T04:18:46;14.70;99.90
36444;DHT22;24692;45.642;13.806;2022-11-02T04:21:30;14.80;99.90
36444;DHT22;24692;45.642;13.806;2022-11-02T04:23:56;14.70;99.90
36444;DHT22;24692;45.642;13.806;2022-11-02T04:26:40;14.80;99.90
36444;DHT22;24692;45.642;13.806;2022-11-02T04:29:06;14.80;99.90
36444;DHT22;24692;45.642;13.806;2022-11-02T04:31:32;14.80;99.90
36444;DHT22;24692;45.642;13.806;2022-11-02T04:33:58;14.80;99.90
36444;DHT22;24692;45.642;13.806;2022-11-02T04:36:25;14.80;99.90
36444;DHT22;24692;45.642;13.806;2022-11-02T04:38:52;14.80;99.90
36444;DHT22;24692;45.642;13.806;2022-11-02T04:41:20;14.80;99.90
36444;DHT22;24692;45.642;13.806;2022-11-02T04:44:04;14.80;99.90
36444;DHT22;24692;45.642;13.806;2022-11-02T04:46:32;14.70;99.90
36444;DHT22;24692;45.642;13.806;2022-11-02T04:48:58;14.70;99.90
36444;DHT22;24692;45.642;13.806;2022-11-02T04:51:26;14.70;99.90
36444;DHT22;24692;45.642;13.806;2022-11-02T04:53:52;14.70;99.90
36444;DHT22;24692;45.642;13.806;2022-11-02T04:56:19;14.70;99.90
36444;DHT22;24692;45.642;13.806;2022-11-02T04:58:52;14.70;99.90
36444;DHT22;24692;45.642;13.806;2022-11-02T05:01:19;14.70;99.90
36444;DHT22;24692;45.642;13.806;2022-11-02T05:03:48;14.70;99.90
36444;DHT22;24692;45.642;13.806;2022-11-02T05:06:16;14.70;99.90
36444;DHT22;24692;45.642;13.806;2022-11-02T05:08:42;14.60;99.90
36444;DHT22;24692;45.642;13.806;2022-11-02T05:11:08;14.60;99.90
36444;DHT22;24692;45.642;13.806;2022-11-02T05:13:35;14.60;99.90
36444;DHT22;24692;45.642;13.806;2022-11-02T05:16:00;14.60;99.90
36444;DHT22;24692;45.642;13.806;2022-11-02T05:18:27;14.60;99.90
36444;DHT22;24692;45.642;13.806;2022-11-02T05:20:58;14.50;99.90
36444;DHT22;24692;45.642;13.806;2022-11-02T05:23:24;14.50;99.90
36444;DHT22;24692;45.642;13.806;2022-11-02T05:26:01;14.50;99.90
36444;DHT22;24692;45.642;13.806;2022-11-02T05:28:29;14.50;99.90
36444;DHT22;24692;45.642;13.806;2022-11-02T05:30:57;14.50;99.90
36444;DHT22;24692;45.642;13.806;2022-11-02T05:33:23;14.40;99.90
36444;DHT22;24692;45.642;13.806;2022-11-02T05:35:49;14.40;99.90
36444;DHT22;24692;45.642;13.806;2022-11-02T05:38:14;14.40;99.90
36444;DHT22;24692;45.642;13.806;2022-11-02T05:40:40;14.40;99.90
36444;DHT22;24692;45.642;13.806;2022-11-02T05:43:07;14.40;99.90
36444;DHT22;24692;45.642;13.806;2022-11-02T05:45:34;14.40;99.90
36444;DHT22;24692;45.642;13.806;2022-11-02T05:48:00;14.30;99.90
36444;DHT22;24692;45.642;13.806;2022-11-02T05:50:27;14.30;99.90
36444;DHT22;24692;45.642;13.806;2022-11-02T05:52:52;14.30;99.90
36444;DHT22;24692;45.642;13.806;2022-11-02T05:55:18;14.30;99.90
36444;DHT22;24692;45.642;13.806;2022-11-02T05:57:53;14.30;99.90
36444;DHT22;24692;45.642;13.806;2022-11-02T06:00:20;14.30;99.90
36444;DHT22;24692;45.642;13.806;2022-11-02T06:02:47;14.30;99.90
36444;DHT22;24692;45.642;13.806;2022-11-02T06:05:13;14.40;99.90
36444;DHT22;24692;45.642;13.806;2022-11-02T06:07:39;14.40;99.90
36444;DHT22;24692;45.642;13.806;2022-11-02T06:10:05;14.50;99.90
36444;DHT22;24692;45.642;13.806;2022-11-02T06:12:31;14.50;99.90
36444;DHT22;24692;45.642;13.806;2022-11-02T06:14:57;14.50;99.90
36444;DHT22;24692;45.642;13.806;2022-11-02T06:17:22;14.60;99.90
36444;DHT22;24692;45.642;13.806;2022-11-02T06:19:48;14.70;99.90
36444;DHT22;24692;45.642;13.806;2022-11-02T06:22:14;14.80;99.90
36444;DHT22;24692;45.642;13.806;2022-11-02T06:24:39;14.90;99.90
36444;DHT22;24692;45.642;13.806;2022-11-02T06:27:05;14.90;99.90
36444;DHT22;24692;45.642;13.806;2022-11-02T06:29:31;15.00;99.90
36444;DHT22;24692;45.642;13.806;2022-11-02T06:31:56;15.10;99.90
36444;DHT22;24692;45.642;13.806;2022-11-02T06:34:22;15.40;99.90
36444;DHT22;24692;45.642;13.806;2022-11-02T06:36:47;15.80;99.90
36444;DHT22;24692;45.642;13.806;2022-11-02T06:39:13;16.40;99.90
36444;DHT22;24692;45.642;13.806;2022-11-02T06:41:39;16.90;99.90
36444;DHT22;24692;45.642;13.806;2022-11-02T06:44:04;17.20;99.90
36444;DHT22;24692;45.642;13.806;2022-11-02T06:46:30;17.40;99.90
36444;DHT22;24692;45.642;13.806;2022-11-02T06:48:56;17.70;99.90
36444;DHT22;24692;45.642;13.806;2022-11-02T06:51:23;18.20;99.90
36444;DHT22;24692;45.642;13.806;2022-11-02T06:53:49;18.60;99.90
36444;DHT22;24692;45.642;13.806;2022-11-02T06:56:14;18.90;99.90
36444;DHT22;24692;45.642;13.806;2022-11-02T06:58:40;19.10;99.90
36444;DHT22;24692;45.642;13.806;2022-11-02T07:01:06;19.20;99.90
36444;DHT22;24692;45.642;13.806;2022-11-02T07:03:33;19.20;99.90
36444;DHT22;24692;45.642;13.806;2022-11-02T07:05:59;19.00;99.90
36444;DHT22;24692;45.642;13.806;2022-11-02T07:08:25;19.20;99.90
36444;DHT22;24692;45.642;13.806;2022-11-02T07:10:52;19.60;99.90
36444;DHT22;24692;45.642;13.806;2022-11-02T07:13:18;19.90;99.90
36444;DHT22;24692;45.642;13.806;2022-11-02T07:15:44;20.10;99.90
36444;DHT22;24692;45.642;13.806;2022-11-02T07:18:10;20.40;99.90
36444;DHT22;24692;45.642;13.806;2022-11-02T07:20:35;20.90;99.90
36444;DHT22;24692;45.642;13.806;2022-11-02T07:23:01;21.20;99.90
36444;DHT22;24692;45.642;13.806;2022-11-02T07:25:29;21.60;99.90
36444;DHT22;24692;45.642;13.806;2022-11-02T07:27:59;21.80;99.90
36444;DHT22;24692;45.642;13.806;2022-11-02T07:30:26;22.00;99.90
36444;DHT22;24692;45.642;13.806;2022-11-02T07:32:52;22.40;99.90
36444;DHT22;24692;45.642;13.806;2022-11-02T07:35:18;22.80;99.90
36444;DHT22;24692;45.642;13.806;2022-11-02T07:37:44;23.10;99.90
36444;DHT22;24692;45.642;13.806;2022-11-02T07:40:11;23.50;99.90
36444;DHT22;24692;45.642;13.806;2022-11-02T07:42:44;23.50;99.90
36444;DHT22;24692;45.642;13.806;2022-11-02T07:45:10;23.90;99.90
36444;DHT22;24692;45.642;13.806;2022-11-02T07:47:46;24.20;99.90
36444;DHT22;24692;45.642;13.806;2022-11-02T07:50:13;24.60;99.90
36444;DHT22;24692;45.642;13.806;2022-11-02T07:52:53;25.20;99.90
36444;DHT22;24692;45.642;13.806;2022-11-02T07:55:22;25.80;99.90
36444;DHT22;24692;45.642;13.806;2022-11-02T07:57:57;26.70;99.90
36444;DHT22;24692;45.642;13.806;2022-11-02T08:00:25;27.20;99.90
36444;DHT22;24692;45.642;13.806;2022-11-02T08:02:57;27.40;99.90
36444;DHT22;24692;45.642;13.806;2022-11-02T08:05:24;27.10;99.90
36444;DHT22;24692;45.642;13.806;2022-11-02T08:08:04;26.80;99.90
36444;DHT22;24692;45.642;13.806;2022-11-02T08:10:31;27.00;99.90
36444;DHT22;24692;45.642;13.806;2022-11-02T08:12:57;26.90;99.90
36444;DHT22;24692;45.642;13.806;2022-11-02T08:15:23;26.80;99.90
36444;DHT22;24692;45.642;13.806;2022-11-02T08:18:19;27.30;99.90
36444;DHT22;24692;45.642;13.806;2022-11-02T08:20:46;27.10;99.90
36444;DHT22;24692;45.642;13.806;2022-11-02T08:23:14;27.00;99.90
36444;DHT22;24692;45.642;13.806;2022-11-02T08:25:40;27.30;99.90
36444;DHT22;24692;45.642;13.806;2022-11-02T08:28:09;27.70;99.90
36444;DHT22;24692;45.642;13.806;2022-11-02T08:30:36;27.80;99.90
36444;DHT22;24692;45.642;13.806;2022-11-02T08:33:04;28.20;99.90
36444;DHT22;24692;45.642;13.806;2022-11-02T08:35:30;27.90;99.90
36444;DHT22;24692;45.642;13.806;2022-11-02T08:37:57;27.40;99.90
36444;DHT22;24692;45.642;13.806;2022-11-02T08:40:24;27.10;99.90
36444;DHT22;24692;45.642;13.806;2022-11-02T08:42:58;27.40;99.90
36444;DHT22;24692;45.642;13.806;2022-11-02T08:45:27;27.80;99.90
36444;DHT22;24692;45.642;13.806;2022-11-02T08:47:53;27.70;99.90
36444;DHT22;24692;45.642;13.806;2022-11-02T08:50:19;27.10;99.90
36444;DHT22;24692;45.642;13.806;2022-11-02T08:52:45;26.80;99.90
36444;DHT22;24692;45.642;13.806;2022-11-02T08:55:10;27.30;99.90
36444;DHT22;24692;45.642;13.806;2022-11-02T08:57:46;27.60;99.90
36444;DHT22;24692;45.642;13.806;2022-11-02T09:00:13;27.80;99.90
36444;DHT22;24692;45.642;13.806;2022-11-02T09:02:39;27.80;99.90
36444;DHT22;24692;45.642;13.806;2022-11-02T09:05:05;28.30;99.90
36444;DHT22;24692;45.642;13.806;2022-11-02T09:07:31;28.30;99.90
36444;DHT22;24692;45.642;13.806;2022-11-02T09:09:56;28.10;99.90
36444;DHT22;24692;45.642;13.806;2022-11-02T09:12:22;27.80;99.90
36444;DHT22;24692;45.642;13.806;2022-11-02T09:14:48;28.10;99.90
36444;DHT22;24692;45.642;13.806;2022-11-02T09:17:13;27.90;99.90
36444;DHT22;24692;45.642;13.806;2022-11-02T09:19:39;28.20;99.90
36444;DHT22;24692;45.642;13.806;2022-11-02T09:22:05;28.30;99.90
36444;DHT22;24692;45.642;13.806;2022-11-02T09:24:30;29.10;99.90
36444;DHT22;24692;45.642;13.806;2022-11-02T09:26:56;29.20;99.90
36444;DHT22;24692;45.642;13.806;2022-11-02T09:29:21;27.80;99.90
36444;DHT22;24692;45.642;13.806;2022-11-02T09:31:47;28.10;99.90
36444;DHT22;24692;45.642;13.806;2022-11-02T09:34:14;28.00;99.90
36444;DHT22;24692;45.642;13.806;2022-11-02T09:36:40;28.20;99.90
36444;DHT22;24692;45.642;13.806;2022-11-02T09:39:05;28.60;99.90
36444;DHT22;24692;45.642;13.806;2022-11-02T09:41:42;29.10;99.90
36444;DHT22;24692;45.642;13.806;2022-11-02T09:46:40;29.10;99.90
36444;DHT22;24692;45.642;13.806;2022-11-02T09:49:15;29.20;99.90
36444;DHT22;24692;45.642;13.806;2022-11-02T09:51:45;29.20;99.90
36444;DHT22;24692;45.642;13.806;2022-11-02T09:54:34;29.40;99.90
36444;DHT22;24692;45.642;13.806;2022-11-02T09:57:05;28.70;99.90
36444;DHT22;24692;45.642;13.806;2022-11-02T09:59:33;27.80;99.90
36444;DHT22;24692;45.642;13.806;2022-11-02T10:15:42;29.70;99.90
36444;DHT22;24692;45.642;13.806;2022-11-02T10:18:17;30.10;99.90
36444;DHT22;24692;45.642;13.806;2022-11-02T10:20:45;29.60;99.90
36444;DHT22;24692;45.642;13.806;2022-11-02T10:23:34;29.90;99.90
36444;DHT22;24692;45.642;13.806;2022-11-02T10:26:01;29.90;99.90
36444;DHT22;24692;45.642;13.806;2022-11-02T10:28:33;30.40;99.90
36444;DHT22;24692;45.642;13.806;2022-11-02T10:31:01;30.70;99.90
36444;DHT22;24692;45.642;13.806;2022-11-02T10:33:29;30.90;99.90
36444;DHT22;24692;45.642;13.806;2022-11-02T10:47:23;30.70;99.90
36444;DHT22;24692;45.642;13.806;2022-11-02T10:52:53;31.40;99.90
36444;DHT22;24692;45.642;13.806;2022-11-02T10:55:58;31.00;99.90
36444;DHT22;24692;45.642;13.806;2022-11-02T10:58:27;31.00;99.90
36444;DHT22;24692;45.642;13.806;2022-11-02T11:01:07;30.40;99.90
36444;DHT22;24692;45.642;13.806;2022-11-02T11:03:33;30.30;99.90
36444;DHT22;24692;45.642;13.806;2022-11-02T11:06:16;30.20;99.90
36444;DHT22;24692;45.642;13.806;2022-11-02T11:08:43;30.60;99.90
36444;DHT22;24692;45.642;13.806;2022-11-02T11:11:20;29.90;99.90
36444;DHT22;24692;45.642;13.806;2022-11-02T11:16:45;30.30;99.90
36444;DHT22;24692;45.642;13.806;2022-11-02T11:19:38;30.20;99.90
36444;DHT22;24692;45.642;13.806;2022-11-02T11:22:37;28.80;99.90
36444;DHT22;24692;45.642;13.806;2022-11-02T11:25:17;28.50;99.90
36444;DHT22;24692;45.642;13.806;2022-11-02T11:32:59;28.70;99.90
36444;DHT22;24692;45.642;13.806;2022-11-02T11:35:31;28.80;99.90
36444;DHT22;24692;45.642;13.806;2022-11-02T11:38:00;28.90;99.90
36444;DHT22;24692;45.642;13.806;2022-11-02T11:40:31;29.00;99.90
36444;DHT22;24692;45.642;13.806;2022-11-02T11:43:00;28.70;99.90
36444;DHT22;24692;45.642;13.806;2022-11-02T11:45:29;29.00;99.90
36444;DHT22;24692;45.642;13.806;2022-11-02T11:48:12;28.30;99.90
36444;DHT22;24692;45.642;13.806;2022-11-02T11:50:48;27.30;99.90
36444;DHT22;24692;45.642;13.806;2022-11-02T11:53:21;26.20;99.90
36444;DHT22;24692;45.642;13.806;2022-11-02T11:55:49;26.00;99.90
36444;DHT22;24692;45.642;13.806;2022-11-02T11:58:22;26.40;99.90
36444;DHT22;24692;45.642;13.806;2022-11-02T12:01:13;27.30;99.90
36444;DHT22;24692;45.642;13.806;2022-11-02T12:09:56;27.60;99.90
36444;DHT22;24692;45.642;13.806;2022-11-02T12:18:22;27.50;99.90
36444;DHT22;24692;45.642;13.806;2022-11-02T12:30:12;29.30;99.90
36444;DHT22;24692;45.642;13.806;2022-11-02T12:32:53;28.90;99.90
36444;DHT22;24692;45.642;13.806;2022-11-02T12:43:37;28.10;99.90
36444;DHT22;24692;45.642;13.806;2022-11-02T12:51:28;28.50;99.90
36444;DHT22;24692;45.642;13.806;2022-11-02T12:53:59;28.00;99.90
36444;DHT22;24692;45.642;13.806;2022-11-02T12:56:53;27.40;99.90
36444;DHT22;24692;45.642;13.806;2022-11-02T12:59:24;27.00;99.90
36444;DHT22;24692;45.642;13.806;2022-11-02T13:01:57;26.90;99.90
36444;DHT22;24692;45.642;13.806;2022-11-02T13:04:35;26.70;99.90
36444;DHT22;24692;45.642;13.806;2022-11-02T13:07:08;26.40;99.90
36444;DHT22;24692;45.642;13.806;2022-11-02T13:09:38;26.80;99.90
36444;DHT22;24692;45.642;13.806;2022-11-02T13:12:13;26.70;99.90
36444;DHT22;24692;45.642;13.806;2022-11-02T13:14:45;25.90;99.90
36444;DHT22;24692;45.642;13.806;2022-11-02T13:17:20;25.60;99.90
36444;DHT22;24692;45.642;13.806;2022-11-02T13:19:53;25.40;99.90
36444;DHT22;24692;45.642;13.806;2022-11-02T13:22:21;26.20;99.90
36444;DHT22;24692;45.642;13.806;2022-11-02T13:24:54;26.30;99.90
36444;DHT22;24692;45.642;13.806;2022-11-02T13:29:57;26.20;99.90
36444;DHT22;24692;45.642;13.806;2022-11-02T13:34:56;25.90;99.90
36444;DHT22;24692;45.642;13.806;2022-11-02T13:37:29;25.00;99.90
36444;DHT22;24692;45.642;13.806;2022-11-02T13:40:02;24.10;99.90
36444;DHT22;24692;45.642;13.806;2022-11-02T13:50:52;23.20;99.90
36444;DHT22;24692;45.642;13.806;2022-11-02T13:53:26;23.00;99.90
36444;DHT22;24692;45.642;13.806;2022-11-02T13:55:56;23.30;99.90
36444;DHT22;24692;45.642;13.806;2022-11-02T13:58:47;23.70;99.90
36444;DHT22;24692;45.642;13.806;2022-11-02T14:01:16;23.50;99.90
36444;DHT22;24692;45.642;13.806;2022-11-02T14:03:47;23.50;99.90
36444;DHT22;24692;45.642;13.806;2022-11-02T14:06:16;23.10;99.90
36444;DHT22;24692;45.642;13.806;2022-11-02T14:11:34;22.70;99.90
36444;DHT22;24692;45.642;13.806;2022-11-02T14:14:05;22.90;99.90
36444;DHT22;24692;45.642;13.806;2022-11-02T14:32:20;22.00;99.90
36444;DHT22;24692;45.642;13.806;2022-11-02T14:48:54;22.30;99.90
36444;DHT22;24692;45.642;13.806;2022-11-02T14:51:26;22.10;99.90
36444;DHT22;24692;45.642;13.806;2022-11-02T14:53:58;21.90;99.90
36444;DHT22;24692;45.642;13.806;2022-11-02T14:56:51;21.70;99.90
36444;DHT22;24692;45.642;13.806;2022-11-02T14:59:30;21.50;99.90
36444;DHT22;24692;45.642;13.806;2022-11-02T15:02:00;21.40;99.90
36444;DHT22;24692;45.642;13.806;2022-11-02T15:04:28;21.40;99.90
36444;DHT22;24692;45.642;13.806;2022-11-02T15:06:57;21.40;99.90
36444;DHT22;24692;45.642;13.806;2022-11-02T15:12:38;21.00;99.90
36444;DHT22;24692;45.642;13.806;2022-11-02T15:15:28;21.00;99.90
36444;DHT22;24692;45.642;13.806;2022-11-02T15:20:26;20.70;99.90
36444;DHT22;24692;45.642;13.806;2022-11-02T15:23:21;20.50;99.90
36444;DHT22;24692;45.642;13.806;2022-11-02T15:25:50;20.50;99.90
36444;DHT22;24692;45.642;13.806;2022-11-02T15:28:22;20.30;99.90
36444;DHT22;24692;45.642;13.806;2022-11-02T15:30:51;20.10;99.90
36444;DHT22;24692;45.642;13.806;2022-11-02T15:33:36;19.90;99.90
36444;DHT22;24692;45.642;13.806;2022-11-02T15:36:05;19.80;99.90
36444;DHT22;24692;45.642;13.806;2022-11-02T15:38:32;19.70;99.90
36444;DHT22;24692;45.642;13.806;2022-11-02T15:41:22;19.60;99.90
36444;DHT22;24692;45.642;13.806;2022-11-02T15:55:37;18.90;99.90
36444;DHT22;24692;45.642;13.806;2022-11-02T15:57:52;19.00;99.90
36444;DHT22;24692;45.642;13.806;2022-11-02T16:00:22;19.00;99.90
36444;DHT22;24692;45.642;13.806;2022-11-02T16:05:43;18.90;99.90
36444;DHT22;24692;45.642;13.806;2022-11-02T16:08:31;18.80;99.90
36444;DHT22;24692;45.642;13.806;2022-11-02T16:13:37;18.70;99.90
36444;DHT22;24692;45.642;13.806;2022-11-02T16:16:07;18.70;99.90
36444;DHT22;24692;45.642;13.806;2022-11-02T16:18:40;18.50;99.90
36444;DHT22;24692;45.642;13.806;2022-11-02T16:21:09;18.50;99.90
36444;DHT22;24692;45.642;13.806;2022-11-02T16:23:39;18.50;99.90
36444;DHT22;24692;45.642;13.806;2022-11-02T16:26:06;18.40;99.90
36444;DHT22;24692;45.642;13.806;2022-11-02T16:28:35;18.30;99.90
36444;DHT22;24692;45.642;13.806;2022-11-02T16:31:20;18.30;99.90
36444;DHT22;24692;45.642;13.806;2022-11-02T16:34:00;18.30;99.90
36444;DHT22;24692;45.642;13.806;2022-11-02T16:36:36;18.30;99.90
36444;DHT22;24692;45.642;13.806;2022-11-02T16:41:51;18.20;99.90
36444;DHT22;24692;45.642;13.806;2022-11-02T16:44:30;18.10;99.90
36444;DHT22;24692;45.642;13.806;2022-11-02T16:47:14;18.20;99.90
36444;DHT22;24692;45.642;13.806;2022-11-02T16:54:55;18.30;99.90
36444;DHT22;24692;45.642;13.806;2022-11-02T16:57:24;18.30;99.90
36444;DHT22;24692;45.642;13.806;2022-11-02T17:00:05;18.20;99.90
36444;DHT22;24692;45.642;13.806;2022-11-02T17:02:42;18.10;99.90
36444;DHT22;24692;45.642;13.806;2022-11-02T17:05:28;18.10;99.90
36444;DHT22;24692;45.642;13.806;2022-11-02T17:08:05;18.10;99.90
36444;DHT22;24692;45.642;13.806;2022-11-02T17:10:36;18.10;99.90
36444;DHT22;24692;45.642;13.806;2022-11-02T17:13:04;18.20;99.90
36444;DHT22;24692;45.642;13.806;2022-11-02T17:15:33;18.20;99.90
36444;DHT22;24692;45.642;13.806;2022-11-02T17:20:34;18.20;99.90
36444;DHT22;24692;45.642;13.806;2022-11-02T17:23:01;18.20;99.90
36444;DHT22;24692;45.642;13.806;2022-11-02T17:25:30;18.20;99.90
36444;DHT22;24692;45.642;13.806;2022-11-02T17:27:57;18.20;99.90
36444;DHT22;24692;45.642;13.806;2022-11-02T17:33:12;18.10;99.90
36444;DHT22;24692;45.642;13.806;2022-11-02T17:35:47;18.00;99.90
36444;DHT22;24692;45.642;13.806;2022-11-02T17:38:14;18.10;99.90
36444;DHT22;24692;45.642;13.806;2022-11-02T17:40:41;18.10;99.90
36444;DHT22;24692;45.642;13.806;2022-11-02T17:43:07;18.10;99.90
36444;DHT22;24692;45.642;13.806;2022-11-02T17:45:36;18.10;99.90
36444;DHT22;24692;45.642;13.806;2022-11-02T17:48:06;18.10;99.90
36444;DHT22;24692;45.642;13.806;2022-11-02T17:50:33;18.10;99.90
36444;DHT22;24692;45.642;13.806;2022-11-02T17:53:01;18.10;99.90
36444;DHT22;24692;45.642;13.806;2022-11-02T17:55:29;18.00;99.90
36444;DHT22;24692;45.642;13.806;2022-11-02T17:57:55;17.90;99.90
36444;DHT22;24692;45.642;13.806;2022-11-02T18:00:22;18.00;99.90
36444;DHT22;24692;45.642;13.806;2022-11-02T18:02:55;18.00;99.90
36444;DHT22;24692;45.642;13.806;2022-11-02T18:05:26;17.80;99.90
36444;DHT22;24692;45.642;13.806;2022-11-02T18:07:52;17.70;99.90
36444;DHT22;24692;45.642;13.806;2022-11-02T18:10:20;17.70;99.90
36444;DHT22;24692;45.642;13.806;2022-11-02T18:12:46;17.80;99.90
36444;DHT22;24692;45.642;13.806;2022-11-02T18:15:20;17.80;99.90
36444;DHT22;24692;45.642;13.806;2022-11-02T18:17:46;17.80;99.90
36444;DHT22;24692;45.642;13.806;2022-11-02T18:20:13;17.80;99.90
36444;DHT22;24692;45.642;13.806;2022-11-02T18:22:39;17.80;99.90
36444;DHT22;24692;45.642;13.806;2022-11-02T18:25:07;17.80;99.90
36444;DHT22;24692;45.642;13.806;2022-11-02T18:27:35;17.80;99.90
36444;DHT22;24692;45.642;13.806;2022-11-02T18:30:01;17.80;99.90